Time;durP1;ratioP1;P1;durP2;ratioP2;P2;SDS_P1;SDS_P2;PMS_P1;PMS_P2;Temp;Humidity;BMP_temperature;BMP_pressure;BME280_temperature;BME280_humidity;BME280_pressure;Samples;Min_cycle;Max_cycle;Signal;HPM_P1;HPM_P2
2023/08/28 00:02:15;;;;;;;96.72;53.70;;;18.90;88.30;;;;;;4936048;28;91943;-85
2023/08/28 00:04:41;;;;;;;98.25;54.15;;;18.90;88.10;;;;;;4941606;28;89316;-85
2023/08/28 00:07:07;;;;;;;96.18;53.72;;;18.90;88.60;;;;;;4940803;28;89200;-84
2023/08/28 00:09:34;;;;;;;96.38;53.45;;;18.90;88.70;;;;;;4943000;28;90990;-88
2023/08/28 00:12:00;;;;;;;96.20;53.78;;;18.90;88.30;;;;;;4942780;28;90572;-87
2023/08/28 00:14:26;;;;;;;96.38;53.83;;;18.90;88.50;;;;;;4958655;28;89429;-85
2023/08/28 00:16:53;;;;;;;96.60;53.15;;;18.90;88.40;;;;;;4961124;28;88248;-85
2023/08/28 00:19:19;;;;;;;96.43;53.72;;;18.90;89.80;;;;;;4941963;28;90897;-85
2023/08/28 00:21:44;;;;;;;95.40;53.38;;;18.90;88.80;;;;;;4941407;28;89404;-84
2023/08/28 00:24:10;;;;;;;95.10;53.42;;;18.80;88.50;;;;;;4957747;28;91009;-84
2023/08/28 00:26:36;;;;;;;96.47;54.05;;;18.80;88.90;;;;;;4941141;28;89101;-85
2023/08/28 00:29:02;;;;;;;97.40;53.78;;;18.80;89.20;;;;;;4942319;28;91438;-88
2023/08/28 00:31:28;;;;;;;95.75;53.65;;;18.80;89.10;;;;;;4957342;28;90764;-85
2023/08/28 00:33:54;;;;;;;97.03;53.55;;;18.80;89.50;;;;;;4938908;28;89985;-84
2023/08/28 00:36:20;;;;;;;96.32;53.50;;;18.80;89.40;;;;;;4945989;28;90139;-86
2023/08/28 00:38:46;;;;;;;95.97;53.42;;;18.80;89.60;;;;;;4956486;28;90243;-84
2023/08/28 00:41:11;;;;;;;95.72;53.50;;;18.80;88.70;;;;;;4927372;28;91054;-85
2023/08/28 00:43:37;;;;;;;95.15;53.55;;;18.70;88.50;;;;;;4941061;28;88983;-85
2023/08/28 00:46:04;;;;;;;96.05;53.63;;;18.70;89.10;;;;;;4940176;28;90650;-85
2023/08/28 00:48:30;;;;;;;96.13;53.58;;;18.70;89.30;;;;;;4956471;28;93195;-85
2023/08/28 00:50:56;;;;;;;95.28;53.50;;;18.70;89.90;;;;;;4943716;28;90743;-88
2023/08/28 00:53:23;;;;;;;94.70;53.22;;;18.70;89.40;;;;;;4942236;28;89139;-86
2023/08/28 00:55:49;;;;;;;96.15;53.67;;;18.70;89.90;;;;;;4958476;28;89300;-85
2023/08/28 00:58:16;;;;;;;95.53;53.65;;;18.70;90.00;;;;;;4943414;28;89330;-85
2023/08/28 01:00:42;;;;;;;98.68;53.85;;;18.70;90.00;;;;;;4939477;28;89943;-86
2023/08/28 01:03:08;;;;;;;96.40;53.58;;;18.70;90.00;;;;;;4944490;28;89137;-84
2023/08/28 01:06:07;;;;;;;97.60;53.47;;;18.60;89.70;;;;;;4960089;28;88590;-85
2023/08/28 01:08:53;;;;;;;97.57;54.00;;;18.60;89.50;;;;;;4942618;28;91324;-86
2023/08/28 01:11:30;;;;;;;96.57;53.75;;;18.60;90.00;;;;;;4943140;28;91623;-85
2023/08/28 01:14:11;;;;;;;95.35;53.45;;;18.60;89.90;;;;;;4960107;28;90292;-85
2023/08/28 01:16:37;;;;;;;96.70;53.83;;;18.50;89.90;;;;;;4945697;28;89012;-87
2023/08/28 01:19:06;;;;;;;97.28;53.75;;;18.50;90.00;;;;;;4961098;28;89690;-88
2023/08/28 01:21:32;;;;;;;96.45;53.35;;;18.50;90.10;;;;;;4948279;28;90530;-84
2023/08/28 01:24:06;;;;;;;96.60;53.95;;;18.50;90.10;;;;;;4947905;28;89325;-85
2023/08/28 01:26:32;;;;;;;95.60;53.47;;;18.40;90.00;;;;;;4963739;28;89892;-85
2023/08/28 01:28:57;;;;;;;96.30;53.80;;;18.40;90.30;;;;;;4943717;28;90232;-84
2023/08/28 01:31:23;;;;;;;95.65;53.67;;;18.40;90.40;;;;;;4966273;28;89810;-85
2023/08/28 01:33:51;;;;;;;96.55;53.72;;;18.40;90.40;;;;;;4946292;28;89397;-86
2023/08/28 01:36:32;;;;;;;99.25;53.97;;;18.40;90.40;;;;;;4963394;28;89130;-85
2023/08/28 01:39:04;;;;;;;95.57;53.78;;;18.30;90.10;;;;;;4946148;28;93164;-85
2023/08/28 01:41:32;;;;;;;96.47;53.63;;;18.30;90.50;;;;;;4945497;28;91305;-88
2023/08/28 01:44:05;;;;;;;96.57;53.90;;;18.30;90.60;;;;;;4948097;28;89064;-89
2023/08/28 01:46:32;;;;;;;95.80;53.67;;;18.30;90.50;;;;;;4956081;28;89695;-86
2023/08/28 01:48:58;;;;;;;98.38;53.95;;;18.20;90.60;;;;;;4947308;28;92480;-87
2023/08/28 01:51:23;;;;;;;94.97;53.47;;;18.20;90.50;;;;;;4947660;28;90224;-87
2023/08/28 01:53:50;;;;;;;95.32;53.72;;;18.20;90.70;;;;;;4944937;28;89247;-85
2023/08/28 01:56:23;;;;;;;95.90;53.70;;;18.20;90.60;;;;;;4944539;28;89105;-85
2023/08/28 01:58:56;;;;;;;97.13;53.80;;;18.10;90.70;;;;;;4960785;28;90107;-86
2023/08/28 02:01:24;;;;;;;95.25;53.30;;;18.10;90.50;;;;;;4957962;28;89672;-86
2023/08/28 02:03:50;;;;;;;97.38;53.72;;;18.10;90.70;;;;;;4941026;28;89858;-85
2023/08/28 02:06:16;;;;;;;94.55;53.20;;;18.10;90.80;;;;;;4945315;28;89580;-86
2023/08/28 02:08:42;;;;;;;95.93;53.58;;;18.10;90.70;;;;;;4963409;28;89931;-85
2023/08/28 02:11:08;;;;;;;96.22;53.55;;;18.10;90.70;;;;;;4946587;28;90317;-88
2023/08/28 02:13:34;;;;;;;94.57;53.13;;;18.00;91.00;;;;;;4964142;28;89703;-85
2023/08/28 02:16:02;;;;;;;96.03;53.60;;;18.00;91.30;;;;;;4943790;28;89275;-85
2023/08/28 02:29:36;;;;;;;95.70;53.65;;;17.90;91.30;;;;;;3616709;22;92919;-76
2023/08/28 02:32:02;;;;;;;98.07;53.63;;;17.90;91.40;;;;;;4895761;28;94947;-78
2023/08/28 02:34:28;;;;;;;94.30;53.22;;;17.90;91.00;;;;;;4920123;28;89520;-77
2023/08/28 02:36:53;;;;;;;95.22;53.40;;;17.80;91.30;;;;;;4925998;28;94045;-76
2023/08/28 02:39:19;;;;;;;95.05;53.45;;;17.80;91.30;;;;;;4926995;28;90946;-77
2023/08/28 02:41:44;;;;;;;95.65;53.45;;;17.80;91.60;;;;;;4909843;28;91855;-78
2023/08/28 02:44:10;;;;;;;95.78;53.35;;;17.80;91.50;;;;;;4939109;28;89806;-78
2023/08/28 02:46:36;;;;;;;95.20;53.17;;;17.80;91.60;;;;;;4942963;28;90392;-76
2023/08/28 02:49:01;;;;;;;95.72;53.60;;;17.80;91.50;;;;;;4923970;28;91259;-77
2023/08/28 02:51:27;;;;;;;94.95;53.42;;;17.70;91.60;;;;;;4923914;28;93172;-76
2023/08/28 02:53:52;;;;;;;94.63;53.15;;;17.70;91.40;;;;;;4920865;28;91074;-77
2023/08/28 02:56:24;;;;;;;95.30;53.33;;;17.70;91.70;;;;;;4921042;28;88821;-77
2023/08/28 02:58:51;;;;;;;95.53;53.42;;;17.70;91.30;;;;;;4924353;28;91660;-77
2023/08/28 03:01:17;;;;;;;95.13;53.47;;;17.60;91.70;;;;;;4924464;28;89648;-76
2023/08/28 03:03:43;;;;;;;95.10;53.53;;;17.60;91.60;;;;;;4907514;28;89748;-76
2023/08/28 03:06:09;;;;;;;94.63;53.35;;;17.60;91.90;;;;;;4924155;28;90556;-77
2023/08/28 03:08:34;;;;;;;94.63;53.13;;;17.60;91.90;;;;;;4928665;28;89362;-77
2023/08/28 03:11:00;;;;;;;94.78;53.38;;;17.50;91.90;;;;;;4917755;28;90073;-77
2023/08/28 03:13:26;;;;;;;94.18;53.40;;;17.50;92.10;;;;;;4922355;28;90178;-76
2023/08/28 03:15:51;;;;;;;94.82;53.47;;;17.50;91.80;;;;;;4924006;28;89570;-78
2023/08/28 03:18:18;;;;;;;94.45;53.22;;;17.50;91.80;;;;;;4922690;28;90413;-77
2023/08/28 03:20:43;;;;;;;94.85;53.15;;;17.50;92.10;;;;;;4908039;28;90180;-77
2023/08/28 03:23:12;;;;;;;96.03;53.72;;;17.50;92.20;;;;;;4932075;28;89390;-77
2023/08/28 03:25:37;;;;;;;94.78;53.17;;;17.40;91.70;;;;;;4931362;28;89943;-76
2023/08/28 03:28:07;;;;;;;94.88;53.47;;;17.40;92.10;;;;;;4921816;28;89499;-77
2023/08/28 03:30:35;;;;;;;94.90;53.47;;;17.40;91.90;;;;;;4926464;28;89746;-76
2023/08/28 03:33:01;;;;;;;96.30;53.15;;;17.40;92.30;;;;;;4923230;28;93299;-76
2023/08/28 03:35:27;;;;;;;93.80;53.05;;;17.30;92.30;;;;;;4906781;28;89139;-77
2023/08/28 03:37:53;;;;;;;94.03;53.17;;;17.40;92.00;;;;;;4907336;28;92141;-77
2023/08/28 03:40:18;;;;;;;94.45;53.42;;;17.30;92.40;;;;;;4924434;28;93225;-77
2023/08/28 03:42:44;;;;;;;94.72;53.20;;;17.30;92.30;;;;;;4927928;28;93272;-77
2023/08/28 03:45:09;;;;;;;94.32;53.33;;;17.30;92.20;;;;;;4929308;28;90604;-77
2023/08/28 03:47:35;;;;;;;94.25;53.42;;;17.30;92.50;;;;;;4928381;28;90597;-77
2023/08/28 03:50:01;;;;;;;94.60;53.42;;;17.30;92.70;;;;;;4924469;28;91880;-78
2023/08/28 03:52:26;;;;;;;94.35;53.42;;;17.20;92.50;;;;;;4924305;28;89187;-77
2023/08/28 03:54:52;;;;;;;93.53;52.72;;;17.20;92.10;;;;;;4925950;28;89255;-77
2023/08/28 03:57:18;;;;;;;94.13;53.35;;;17.20;92.80;;;;;;4928490;28;90198;-77
2023/08/28 03:59:43;;;;;;;96.15;53.42;;;17.20;92.90;;;;;;4923463;28;89594;-77
2023/08/28 04:02:09;;;;;;;94.18;53.40;;;17.10;92.80;;;;;;4923117;28;88882;-76
2023/08/28 04:04:34;;;;;;;94.07;53.22;;;17.10;92.10;;;;;;4908575;28;89829;-78
2023/08/28 04:07:03;;;;;;;94.05;53.30;;;17.10;93.00;;;;;;4934224;28;90187;-77
2023/08/28 04:09:29;;;;;;;94.43;53.35;;;17.10;93.00;;;;;;4935675;28;90006;-77
2023/08/28 04:11:55;;;;;;;95.53;53.17;;;17.10;92.60;;;;;;4912433;28;91548;-77
2023/08/28 04:14:22;;;;;;;93.90;53.25;;;17.10;92.80;;;;;;4925058;28;91917;-78
2023/08/28 04:16:47;;;;;;;95.10;53.00;;;17.10;92.90;;;;;;4914308;28;90651;-77
2023/08/28 04:19:13;;;;;;;94.95;53.53;;;17.10;93.10;;;;;;4933050;28;89666;-77
2023/08/28 04:21:38;;;;;;;94.18;53.30;;;17.10;92.90;;;;;;4925776;28;89494;-77
2023/08/28 04:24:04;;;;;;;94.13;53.20;;;17.00;92.60;;;;;;4922301;28;88337;-78
2023/08/28 04:26:30;;;;;;;94.28;53.40;;;17.10;93.30;;;;;;4925820;28;90515;-77
2023/08/28 04:28:56;;;;;;;94.20;53.13;;;17.00;92.80;;;;;;4921569;28;89571;-77
2023/08/28 04:31:22;;;;;;;94.30;53.40;;;17.00;92.90;;;;;;4919937;28;91875;-76
2023/08/28 04:33:47;;;;;;;94.05;52.97;;;17.00;93.20;;;;;;4926446;28;91583;-78
2023/08/28 04:36:13;;;;;;;94.78;53.22;;;17.00;93.10;;;;;;4924267;28;89965;-77
2023/08/28 04:38:39;;;;;;;93.75;53.30;;;16.90;93.10;;;;;;4905707;28;90265;-77
2023/08/28 04:41:04;;;;;;;93.97;53.33;;;16.90;93.20;;;;;;4923911;28;89494;-77
2023/08/28 04:43:30;;;;;;;94.25;53.15;;;16.90;93.20;;;;;;4927579;28;88752;-77
2023/08/28 04:45:55;;;;;;;94.00;53.28;;;16.90;93.10;;;;;;4923301;28;90048;-77
2023/08/28 04:48:21;;;;;;;94.15;53.08;;;16.90;93.10;;;;;;4909599;28;90946;-77
2023/08/28 04:50:47;;;;;;;93.80;53.17;;;16.90;93.40;;;;;;4920273;28;89613;-77
2023/08/28 04:53:12;;;;;;;94.00;53.10;;;16.90;93.40;;;;;;4927660;28;89958;-77
2023/08/28 04:55:41;;;;;;;93.75;53.22;;;16.90;92.90;;;;;;4922554;28;90702;-77
2023/08/28 04:58:07;;;;;;;96.25;53.35;;;16.90;93.20;;;;;;4928585;28;89780;-77
2023/08/28 05:00:33;;;;;;;93.75;53.17;;;16.90;93.20;;;;;;4925582;28;89997;-76
2023/08/28 05:02:59;;;;;;;93.70;52.85;;;16.80;93.20;;;;;;4924502;28;89239;-77
2023/08/28 05:05:24;;;;;;;94.80;53.03;;;16.80;93.70;;;;;;4928374;28;89870;-78
2023/08/28 05:07:50;;;;;;;94.47;53.15;;;16.80;93.20;;;;;;4920688;28;89584;-77
2023/08/28 05:10:15;;;;;;;94.60;53.25;;;16.80;93.30;;;;;;4928964;28;91819;-77
2023/08/28 05:12:41;;;;;;;94.45;53.55;;;16.80;92.90;;;;;;4920194;28;89877;-77
2023/08/28 05:15:07;;;;;;;95.25;53.35;;;16.80;93.80;;;;;;4927477;28;91471;-77
2023/08/28 05:17:33;;;;;;;94.72;53.47;;;16.80;93.50;;;;;;4929128;28;90608;-76
2023/08/28 05:19:59;;;;;;;94.25;53.28;;;16.80;93.10;;;;;;4924317;28;92281;-78
2023/08/28 05:22:24;;;;;;;96.22;53.53;;;16.80;93.10;;;;;;4905326;28;91473;-77
2023/08/28 05:24:50;;;;;;;95.72;53.25;;;16.80;93.40;;;;;;4928367;28;89396;-76
2023/08/28 05:27:15;;;;;;;93.50;53.08;;;16.80;93.50;;;;;;4925906;28;90687;-77
2023/08/28 05:29:41;;;;;;;95.13;53.50;;;16.80;93.50;;;;;;4917692;28;89487;-76
2023/08/28 05:32:07;;;;;;;94.32;53.60;;;16.80;93.50;;;;;;4919702;28;90752;-78
2023/08/28 05:34:32;;;;;;;94.07;53.55;;;16.80;93.40;;;;;;4929016;28;90317;-75
2023/08/28 05:36:58;;;;;;;95.20;53.28;;;16.80;93.40;;;;;;4930465;28;90715;-77
2023/08/28 05:39:23;;;;;;;96.35;53.40;;;16.80;93.30;;;;;;4902284;28;89489;-78
2023/08/28 05:41:49;;;;;;;95.03;53.38;;;16.80;93.60;;;;;;4925835;28;93947;-76
2023/08/28 05:44:15;;;;;;;95.00;53.42;;;16.80;93.10;;;;;;4920130;28;90026;-77
2023/08/28 05:46:40;;;;;;;93.10;53.08;;;16.80;92.80;;;;;;4922580;28;89622;-77
2023/08/28 05:49:07;;;;;;;92.80;52.92;;;16.80;93.00;;;;;;4904199;28;89660;-75
2023/08/28 05:51:33;;;;;;;93.60;53.33;;;16.80;93.60;;;;;;4930234;28;90224;-77
2023/08/28 05:53:58;;;;;;;94.32;53.35;;;16.90;93.60;;;;;;4923936;28;89543;-78
2023/08/28 05:56:24;;;;;;;95.10;53.58;;;16.90;93.60;;;;;;4931045;28;91983;-79
2023/08/28 05:58:50;;;;;;;94.55;53.55;;;16.90;93.20;;;;;;4931532;28;90024;-77
2023/08/28 06:01:15;;;;;;;95.78;53.80;;;16.90;93.50;;;;;;4927966;28;90538;-75
2023/08/28 06:03:41;;;;;;;95.40;53.70;;;17.00;93.30;;;;;;4930079;28;92496;-76
2023/08/28 06:06:07;;;;;;;97.47;53.90;;;17.00;93.70;;;;;;4909764;28;90893;-78
2023/08/28 06:08:33;;;;;;;95.93;53.67;;;17.00;93.00;;;;;;4913345;28;91446;-77
2023/08/28 06:10:58;;;;;;;97.32;53.60;;;17.00;93.50;;;;;;4931428;28;89727;-79
2023/08/28 06:13:24;;;;;;;94.30;53.55;;;17.10;93.20;;;;;;4937777;28;91221;-78
2023/08/28 06:15:50;;;;;;;94.28;53.58;;;17.10;93.30;;;;;;4930436;28;90606;-79
2023/08/28 06:18:16;;;;;;;95.05;53.90;;;17.10;93.20;;;;;;4935135;28;91370;-79
2023/08/28 06:20:41;;;;;;;94.47;53.92;;;17.10;92.70;;;;;;4931265;28;91044;-80
2023/08/28 06:23:07;;;;;;;95.32;53.45;;;17.10;93.10;;;;;;4917303;28;89689;-77
2023/08/28 06:25:32;;;;;;;95.22;53.75;;;17.20;92.70;;;;;;4933509;28;88813;-77
2023/08/28 06:27:58;;;;;;;96.75;53.92;;;17.20;92.80;;;;;;4935005;28;94121;-79
2023/08/28 06:30:24;;;;;;;94.90;53.50;;;17.20;92.90;;;;;;4934312;28;90474;-79
2023/08/28 06:32:49;;;;;;;94.80;53.75;;;17.30;92.90;;;;;;4932896;28;90597;-78
2023/08/28 06:35:15;;;;;;;97.28;54.03;;;17.30;93.00;;;;;;4932666;28;89657;-79
2023/08/28 06:37:41;;;;;;;94.32;53.75;;;17.30;92.40;;;;;;4932576;28;89465;-79
2023/08/28 06:40:08;;;;;;;94.30;53.28;;;17.30;93.00;;;;;;4933250;28;89525;-78
2023/08/28 06:42:34;;;;;;;96.43;53.67;;;17.40;92.70;;;;;;4911347;28;91941;-79
2023/08/28 06:45:00;;;;;;;95.22;53.95;;;17.40;92.40;;;;;;4919496;28;91599;-79
2023/08/28 06:47:25;;;;;;;93.75;53.13;;;17.40;92.40;;;;;;4932250;28;89223;-78
2023/08/28 06:49:51;;;;;;;96.53;53.95;;;17.40;92.50;;;;;;4936378;28;88490;-80
2023/08/28 06:52:17;;;;;;;95.35;53.83;;;17.50;92.50;;;;;;4915472;28;89103;-78
2023/08/28 06:54:42;;;;;;;93.85;53.17;;;17.50;92.90;;;;;;4917506;28;90961;-80
2023/08/28 06:57:08;;;;;;;93.72;53.35;;;17.50;92.10;;;;;;4932273;28;90297;-79
2023/08/28 06:59:33;;;;;;;96.05;53.65;;;17.50;92.00;;;;;;4936093;28;90583;-78
2023/08/28 07:01:59;;;;;;;94.97;53.50;;;17.50;92.00;;;;;;4931578;28;89166;-79
2023/08/28 07:04:25;;;;;;;94.70;53.65;;;17.50;92.50;;;;;;4930939;28;89429;-78
2023/08/28 07:06:51;;;;;;;96.32;53.83;;;17.60;92.10;;;;;;4915457;28;93739;-79
2023/08/28 07:09:16;;;;;;;95.57;53.95;;;17.60;92.50;;;;;;4937326;28;89528;-79
2023/08/28 07:11:43;;;;;;;95.88;53.53;;;17.60;91.80;;;;;;4916057;28;89583;-80
2023/08/28 07:14:09;;;;;;;95.82;53.92;;;17.60;91.90;;;;;;4927033;28;89581;-77
2023/08/28 07:16:34;;;;;;;95.20;53.88;;;17.60;91.80;;;;;;4932750;28;92314;-78
2023/08/28 07:19:00;;;;;;;97.85;54.17;;;17.60;92.00;;;;;;4928616;28;92948;-79
2023/08/28 07:21:26;;;;;;;98.78;53.97;;;17.70;92.20;;;;;;4916785;28;92755;-79
2023/08/28 07:23:51;;;;;;;96.20;53.60;;;17.70;91.90;;;;;;4929895;28;90873;-81
2023/08/28 07:26:18;;;;;;;95.78;53.83;;;17.70;92.00;;;;;;4930550;28;89305;-78
2023/08/28 07:28:43;;;;;;;98.97;54.25;;;17.80;92.20;;;;;;4931459;28;89507;-81
2023/08/28 07:31:10;;;;;;;96.00;54.22;;;17.80;92.10;;;;;;4930048;28;89450;-79
2023/08/28 07:33:36;;;;;;;98.00;53.97;;;17.80;91.90;;;;;;4932965;28;90368;-83
2023/08/28 07:36:03;;;;;;;96.47;53.92;;;17.80;91.60;;;;;;4927398;28;89090;-81
2023/08/28 07:38:28;;;;;;;96.05;53.85;;;17.90;91.50;;;;;;4928639;28;89148;-81
2023/08/28 07:40:54;;;;;;;96.03;54.30;;;17.90;91.80;;;;;;4928973;28;90498;-80
2023/08/28 07:43:20;;;;;;;97.10;54.35;;;17.90;91.90;;;;;;4935287;28;89897;-82
2023/08/28 07:45:45;;;;;;;98.25;54.35;;;17.90;91.70;;;;;;4924381;28;90584;-80
2023/08/28 07:48:11;;;;;;;97.85;54.42;;;18.00;91.60;;;;;;4933699;28;89994;-81
2023/08/28 07:50:40;;;;;;;96.38;53.88;;;18.00;91.50;;;;;;4924747;28;92735;-81
2023/08/28 07:53:05;;;;;;;96.53;53.85;;;18.00;91.50;;;;;;4930620;28;91411;-81
2023/08/28 07:55:31;;;;;;;96.45;54.25;;;18.00;91.50;;;;;;4927077;28;91083;-80
2023/08/28 07:57:57;;;;;;;99.30;54.10;;;18.10;91.20;;;;;;4915329;28;89152;-78
2023/08/28 08:00:22;;;;;;;95.85;53.70;;;18.10;91.30;;;;;;4932968;28;90344;-82
2023/08/28 08:02:51;;;;;;;96.25;54.08;;;18.10;91.20;;;;;;4932470;28;89142;-81
2023/08/28 08:05:17;;;;;;;97.13;54.10;;;18.10;91.70;;;;;;4934701;28;90909;-81
2023/08/28 08:07:42;;;;;;;96.40;53.92;;;18.20;91.20;;;;;;4930251;28;91146;-81
2023/08/28 08:10:13;;;;;;;97.25;54.45;;;18.30;91.00;;;;;;4914050;28;91878;-81
2023/08/28 08:12:39;;;;;;;96.73;53.90;;;18.30;91.20;;;;;;4925414;28;90216;-81
2023/08/28 08:15:08;;;;;;;97.35;54.10;;;18.30;91.00;;;;;;4928934;28;90434;-78
2023/08/28 08:17:36;;;;;;;96.20;53.92;;;18.40;90.90;;;;;;4927914;28;88963;-82
2023/08/28 08:20:09;;;;;;;96.78;54.17;;;18.50;90.70;;;;;;4913788;28;89619;-80
2023/08/28 08:22:35;;;;;;;97.20;54.08;;;18.50;90.70;;;;;;4913066;28;90961;-82
2023/08/28 08:25:01;;;;;;;98.38;55.22;;;18.60;91.30;;;;;;4928032;28;89169;-77
2023/08/28 08:27:27;;;;;;;99.20;55.25;;;18.50;85.20;;;;;;4912073;28;92759;-77
2023/08/28 08:29:53;;;;;;;99.65;54.53;;;18.30;82.70;;;;;;4921004;28;89459;-77
2023/08/28 08:32:18;;;;;;;98.78;54.70;;;18.30;85.10;;;;;;4926673;28;89337;-78
2023/08/28 08:34:45;;;;;;;99.93;54.83;;;18.50;84.70;;;;;;4918201;28;90253;-77
2023/08/28 08:37:10;;;;;;;97.18;54.83;;;18.50;84.60;;;;;;4926241;28;90933;-78
2023/08/28 08:39:36;;;;;;;97.97;54.28;;;18.50;83.70;;;;;;4916079;28;90003;-78
2023/08/28 08:42:01;;;;;;;99.03;54.80;;;18.30;82.40;;;;;;4924032;28;90907;-77
2023/08/28 08:44:27;;;;;;;96.95;54.45;;;18.30;84.60;;;;;;4922229;28;93629;-77
2023/08/28 08:46:54;;;;;;;97.63;54.08;;;18.40;83.30;;;;;;4922927;28;91419;-78
2023/08/28 08:49:26;;;;;;;99.57;54.47;;;18.50;81.80;;;;;;4921371;28;89925;-77
2023/08/28 08:51:58;;;;;;;98.10;53.80;;;18.50;78.40;;;;;;4926800;28;89385;-77
2023/08/28 08:54:26;;;;;;;97.65;54.47;;;18.70;83.20;;;;;;4923407;28;92321;-78
2023/08/28 08:57:01;;;;;;;99.97;54.58;;;18.90;81.80;;;;;;4919935;28;89095;-81
2023/08/28 08:59:27;;;;;;;97.97;54.67;;;18.90;80.60;;;;;;4934030;28;90816;-81
2023/08/28 09:01:54;;;;;;;97.80;54.25;;;18.80;81.60;;;;;;4937757;28;89467;-78
2023/08/28 09:04:21;;;;;;;97.63;54.05;;;18.80;77.50;;;;;;4934622;28;89777;-78
2023/08/28 09:06:48;;;;;;;97.07;54.50;;;18.90;81.30;;;;;;4938168;28;90240;-79
2023/08/28 09:09:15;;;;;;;97.68;54.38;;;18.80;77.40;;;;;;4930369;28;91883;-76
2023/08/28 09:11:42;;;;;;;97.88;54.58;;;18.70;77.90;;;;;;4924809;28;89323;-77
2023/08/28 09:14:08;;;;;;;98.30;54.83;;;18.80;79.10;;;;;;4919460;28;91071;-78
2023/08/28 09:16:34;;;;;;;95.88;54.38;;;18.70;78.90;;;;;;4928644;28;88892;-78
2023/08/28 09:19:01;;;;;;;99.93;54.50;;;18.70;80.00;;;;;;4916028;28;93073;-77
2023/08/28 09:21:37;;;;;;;100.95;54.97;;;18.70;80.00;;;;;;4929949;28;91050;-78
2023/08/28 10:48:25;;;;;;;99.70;54.75;;;19.60;70.30;;;;;;4868971;28;90823;-77
2023/08/28 10:50:59;;;;;;;99.65;54.78;;;19.60;69.80;;;;;;4921759;28;89251;-77
2023/08/28 10:53:26;;;;;;;97.72;55.05;;;19.70;73.60;;;;;;4927018;28;90000;-77
2023/08/28 10:55:55;;;;;;;99.18;54.85;;;19.70;65.10;;;;;;4926587;28;91017;-76
2023/08/28 10:58:21;;;;;;;98.22;54.80;;;19.60;70.70;;;;;;4908093;28;89610;-77
2023/08/28 11:00:47;;;;;;;98.47;55.15;;;19.80;68.50;;;;;;4928698;28;92146;-74
2023/08/28 11:03:17;;;;;;;98.40;54.47;;;19.70;69.10;;;;;;4930770;28;91111;-76
2023/08/28 11:05:43;;;;;;;100.95;54.95;;;19.70;67.80;;;;;;4909641;28;90202;-76
2023/08/28 11:08:11;;;;;;;98.85;54.50;;;19.50;71.80;;;;;;4922589;28;93223;-76
2023/08/28 11:10:39;;;;;;;98.75;54.47;;;19.50;70.00;;;;;;4922335;28;92188;-75
2023/08/28 11:13:07;;;;;;;97.80;54.28;;;19.40;69.30;;;;;;4920925;28;90336;-76
2023/08/28 11:15:33;;;;;;;98.38;54.63;;;19.40;70.70;;;;;;4924549;28;89894;-76
2023/08/28 11:18:18;;;;;;;97.40;54.47;;;19.40;67.00;;;;;;4927224;28;90008;-76
2023/08/28 11:20:48;;;;;;;98.75;54.50;;;19.40;66.60;;;;;;4921164;28;91692;-77
2023/08/28 11:23:22;;;;;;;96.63;54.15;;;19.40;67.80;;;;;;4926092;28;92102;-76
2023/08/28 11:25:50;;;;;;;97.40;54.50;;;19.30;68.20;;;;;;4920171;28;90526;-77
2023/08/28 11:28:27;;;;;;;97.55;54.38;;;19.30;68.70;;;;;;4923588;28;90805;-77
2023/08/28 11:30:58;;;;;;;101.05;54.92;;;19.30;68.80;;;;;;4926795;28;89414;-75
2023/08/28 11:33:24;;;;;;;98.32;54.80;;;19.30;67.30;;;;;;4918382;28;89441;-76
2023/08/28 11:35:50;;;;;;;100.93;54.72;;;19.40;68.50;;;;;;4924753;28;91689;-76
2023/08/28 11:38:16;;;;;;;98.68;54.05;;;19.50;66.70;;;;;;4919453;28;90392;-76
2023/08/28 11:40:43;;;;;;;98.57;54.60;;;19.60;66.80;;;;;;4919340;28;90766;-76
2023/08/28 11:43:08;;;;;;;98.72;55.10;;;19.70;71.40;;;;;;4932653;28;89223;-76
2023/08/28 11:45:34;;;;;;;97.63;54.40;;;19.80;75.90;;;;;;4905270;28;90379;-79
2023/08/28 11:48:04;;;;;;;100.00;55.22;;;19.80;77.10;;;;;;4925554;28;90690;-78
2023/08/28 11:50:29;;;;;;;97.85;54.72;;;19.80;77.80;;;;;;4909352;28;95196;-77
2023/08/28 11:52:55;;;;;;;99.28;54.83;;;19.80;78.80;;;;;;4911895;28;92937;-79
2023/08/28 11:55:21;;;;;;;99.30;54.75;;;19.80;79.00;;;;;;4906462;28;89277;-78
2023/08/28 11:57:49;;;;;;;100.53;55.30;;;19.90;78.90;;;;;;4907530;28;90768;-79
2023/08/28 12:00:16;;;;;;;98.53;54.55;;;19.90;78.60;;;;;;4907766;28;91936;-79
2023/08/28 12:02:48;;;;;;;99.50;54.90;;;20.00;78.70;;;;;;4926361;28;89887;-76
2023/08/28 12:05:17;;;;;;;100.15;54.75;;;20.00;78.80;;;;;;4925015;28;93012;-79
2023/08/28 12:07:45;;;;;;;99.57;55.03;;;20.00;79.00;;;;;;4927539;28;88422;-77
2023/08/28 12:10:13;;;;;;;101.22;55.10;;;20.10;78.80;;;;;;4924630;28;89159;-79
2023/08/28 12:12:39;;;;;;;101.90;55.38;;;20.10;78.80;;;;;;4926918;28;89628;-78
2023/08/28 12:15:08;;;;;;;100.25;55.00;;;20.20;78.30;;;;;;4926369;28;89680;-80
2023/08/28 12:17:34;;;;;;;99.57;55.08;;;20.20;78.20;;;;;;4907903;28;89272;-80
2023/08/28 12:19:59;;;;;;;100.50;55.42;;;20.20;78.10;;;;;;4924468;28;90188;-80
2023/08/28 12:22:25;;;;;;;100.18;55.35;;;20.30;77.80;;;;;;4908661;28;91139;-78
2023/08/28 12:24:52;;;;;;;101.32;55.42;;;20.30;78.00;;;;;;4927312;28;89581;-79
2023/08/28 12:27:25;;;;;;;100.25;55.33;;;20.40;78.50;;;;;;4910459;28;91394;-80
2023/08/28 12:29:51;;;;;;;100.88;55.53;;;20.40;78.30;;;;;;4923127;28;90208;-79
2023/08/28 12:32:19;;;;;;;100.50;55.08;;;20.50;78.30;;;;;;4929973;28;92315;-79
2023/08/28 12:34:46;;;;;;;102.93;55.10;;;20.60;77.90;;;;;;4908895;28;89577;-80
2023/08/28 12:37:13;;;;;;;100.47;55.33;;;20.60;77.40;;;;;;4926869;28;89506;-79
2023/08/28 12:39:52;;;;;;;100.78;55.35;;;20.60;77.40;;;;;;4925534;28;90303;-80
2023/08/28 12:42:19;;;;;;;101.30;55.42;;;20.70;77.60;;;;;;4924813;28;95294;-80
2023/08/28 12:44:44;;;;;;;100.60;55.40;;;20.70;77.50;;;;;;4926241;28;89523;-80
2023/08/28 12:47:12;;;;;;;101.68;55.55;;;20.70;77.60;;;;;;4928480;28;89872;-78
2023/08/28 12:49:40;;;;;;;100.97;55.13;;;20.70;77.50;;;;;;4927150;28;88996;-80
2023/08/28 12:52:09;;;;;;;101.50;55.05;;;20.80;77.30;;;;;;4926917;28;92033;-80
2023/08/28 12:54:35;;;;;;;101.32;55.47;;;20.70;77.20;;;;;;4924471;28;89219;-80
2023/08/28 12:57:03;;;;;;;100.97;55.10;;;20.80;77.70;;;;;;4905063;28;90343;-80
2023/08/28 12:59:29;;;;;;;100.97;55.42;;;20.70;77.50;;;;;;4927053;28;91210;-80
2023/08/28 13:01:55;;;;;;;101.57;55.60;;;20.80;77.20;;;;;;4926765;28;90473;-79
2023/08/28 13:04:20;;;;;;;101.82;55.05;;;20.80;77.30;;;;;;4924720;28;91212;-80
2023/08/28 13:06:47;;;;;;;100.22;55.70;;;20.80;78.00;;;;;;4935711;28;89248;-78
2023/08/28 13:09:14;;;;;;;99.60;55.28;;;20.80;77.20;;;;;;4925674;28;92634;-80
2023/08/28 13:11:40;;;;;;;100.85;55.28;;;20.80;77.80;;;;;;4929341;28;92636;-80
2023/08/28 13:14:06;;;;;;;100.25;55.53;;;20.80;77.40;;;;;;4929521;28;89201;-80
2023/08/28 13:16:32;;;;;;;100.00;55.40;;;20.80;77.60;;;;;;4931526;28;89328;-79
2023/08/28 13:18:59;;;;;;;101.28;54.92;;;20.80;76.80;;;;;;4929132;28;91656;-80
2023/08/28 13:21:25;;;;;;;100.78;55.35;;;20.90;77.20;;;;;;4918857;28;89253;-80
2023/08/28 13:23:51;;;;;;;100.40;55.40;;;20.90;77.40;;;;;;4929296;28;89142;-79
2023/08/28 13:26:16;;;;;;;100.03;54.92;;;21.00;77.30;;;;;;4927107;28;90980;-80
2023/08/28 13:28:42;;;;;;;102.63;55.58;;;21.00;76.90;;;;;;4926061;28;91220;-79
2023/08/28 13:31:09;;;;;;;99.88;55.45;;;21.00;76.90;;;;;;4926373;28;92704;-77
2023/08/28 13:33:35;;;;;;;101.75;55.65;;;21.00;76.80;;;;;;4927935;28;90157;-79
2023/08/28 13:36:01;;;;;;;100.65;55.45;;;21.00;76.50;;;;;;4927393;28;90940;-79
2023/08/28 13:38:26;;;;;;;100.82;55.53;;;21.10;76.50;;;;;;4930354;28;89220;-79
2023/08/28 13:40:52;;;;;;;101.88;55.63;;;21.10;76.30;;;;;;4928216;28;89013;-77
2023/08/28 13:43:18;;;;;;;100.28;55.25;;;21.10;76.40;;;;;;4934277;28;93981;-80
2023/08/28 13:45:43;;;;;;;102.93;55.47;;;21.20;75.80;;;;;;4908921;28;91969;-76
2023/08/28 13:48:09;;;;;;;102.00;55.50;;;21.20;75.70;;;;;;4918398;28;90661;-77
2023/08/28 13:50:35;;;;;;;99.63;55.15;;;21.20;76.00;;;;;;4925102;28;89809;-80
2023/08/28 13:53:01;;;;;;;101.30;55.53;;;21.30;75.60;;;;;;4926883;28;90918;-78
2023/08/28 13:55:26;;;;;;;101.78;55.42;;;21.20;75.80;;;;;;4927258;28;89163;-78
2023/08/28 13:57:52;;;;;;;100.63;55.38;;;21.30;74.00;;;;;;4925622;28;89454;-77
2023/08/28 14:00:18;;;;;;;102.68;55.42;;;21.30;74.30;;;;;;4926209;28;90666;-77